Kodiak, AK (99615)

2:22 AM AKDT on July 30, 2016 (GMT -0800)
Pillar Mountain | | Change Station

Elev 1204 ft 57.79 °N, 152.44 °W | Updated 5 minutes ago

Mostly Cloudy
Mostly Cloudy
54.0 °F
Feels Like 54.0 °F
N
9.9
Wind Variable Wind from West

Today
High -- | Low -- °F
--% Chance of Precip.
Yesterday
High -- | Low -- °F
Precip. -- in
Pressure 30.17 in
Visibility 10.0 miles
Clouds Mostly Cloudy 3000 ft
Dew Point 46 °F
Humidity 73%
Rainfall 0.00 in
Snow Depth Not available.
6:01 AM 10:29 PM
Waning Crescent, 14% visible
METAR PADQ 300953Z 28003KT 10SM BKN030 12/10 A3016 RMK AO2 SLP215 T01170100
Pressure 30.17 in
Visibility 10.0 miles
Clouds Mostly Cloudy 3000 ft
Dew Point 46 °F
Humidity 73%
Rainfall 0.00 in
Snow Depth Not available.
6:01 AM 10:29 PM
Waning Crescent, 14% visible
METAR PADQ 300953Z 28003KT 10SM BKN030 12/10 A3016 RMK AO2 SLP215 T01170100

10-Day Weather Forecast

Almanac

Astronomy

Jul. 30, 2016 Rise Set
Actual Time
Civil Twilight
Nautical Twilight
Astronomical Twilight
Moon
Length of Visible Light
Length of Day
Tomorrow will be .
, % of the Moon is Illuminated

Today's Extremes

State Highs State Lows

Community

WunderPhotos

Upload Photos

1,928,530 photos uploaded!

WunderBlog® & News

Nearby

Air Quality

  Air Quality AQ Index Pollutant
Not available.

Snow Depth

Station Depth Elevation

Earthquake Activity

City Distance Mag. Time & Date
Minimum magnitude displayed is 2.5.

Coastal Water Temperatures

Place Temperature

Stations

Nearby Weather Stations

Station Location Temp. Windchill Dew Point Humidity Wind Precip. Elev Updated Type
                   

Watches & Warnings

There are currently no watches in effect.